createdAt,value
2018-03-03T00:01:18.553Z,35.50
2018-03-03T00:03:45.583Z,35.70
2018-03-03T00:08:40.570Z,35.70
2018-03-03T00:11:07.619Z,35.60
2018-03-03T00:13:34.237Z,35.70
2018-03-03T00:16:01.274Z,35.70
2018-03-03T00:23:41.141Z,35.70
2018-03-03T00:44:27.096Z,35.70
2018-03-03T00:46:56.728Z,35.80
2018-03-03T00:49:23.375Z,35.80
2018-03-03T00:51:52.034Z,35.80
2018-03-03T00:54:22.166Z,35.80
2018-03-03T00:56:49.210Z,35.90
2018-03-03T00:59:16.242Z,36.00
2018-03-03T01:01:46.157Z,36.00
2018-03-03T01:04:12.801Z,35.90
2018-03-03T01:06:39.836Z,35.80
2018-03-03T01:09:06.862Z,36.00
2018-03-03T01:11:33.494Z,35.80
2018-03-03T01:14:00.676Z,35.70
2018-03-03T01:16:28.065Z,35.90
2018-03-03T01:18:54.699Z,35.70
2018-03-03T01:21:21.904Z,35.70
2018-03-03T01:25:50.073Z,35.50
2018-03-03T01:28:16.702Z,35.40
2018-03-03T01:30:43.760Z,35.50
2018-03-03T01:33:10.808Z,35.60
2018-03-03T01:35:37.457Z,35.60
2018-03-03T01:38:04.101Z,35.50
2018-03-03T01:40:30.734Z,35.80
2018-03-03T01:42:58.882Z,35.70
2018-03-03T01:45:25.961Z,35.60
2018-03-03T01:47:52.599Z,35.80
2018-03-03T01:50:20.057Z,35.80
2018-03-03T01:52:47.090Z,35.70
2018-03-03T01:55:16.193Z,35.50
2018-03-03T01:57:43.231Z,35.60
2018-03-03T02:00:16.268Z,35.70
2018-03-03T02:02:42.938Z,35.90
2018-03-03T02:05:09.628Z,36.00
2018-03-03T02:07:36.276Z,36.00
2018-03-03T02:10:03.010Z,36.10
2018-03-03T02:12:30.461Z,36.20
2018-03-03T02:27:53.612Z,36.30
2018-03-03T02:30:20.266Z,36.40
2018-03-03T02:32:52.123Z,36.40
2018-03-03T02:35:18.836Z,36.40
2018-03-03T02:37:45.863Z,36.50
2018-03-03T02:40:12.498Z,36.50
2018-03-03T02:42:39.121Z,36.50
2018-03-03T02:45:06.149Z,36.50
2018-03-03T02:47:33.182Z,36.50
2018-03-03T02:50:00.215Z,36.60
2018-03-03T02:52:26.835Z,36.60
2018-03-03T02:54:53.470Z,36.60
2018-03-03T02:57:20.890Z,36.60
2018-03-03T02:59:47.522Z,36.60
2018-03-03T03:02:14.146Z,36.70
2018-03-03T03:04:41.161Z,36.70
2018-03-03T03:07:07.790Z,36.70
2018-03-03T03:09:34.406Z,36.70
2018-03-03T03:12:01.055Z,36.70
2018-03-03T03:14:28.066Z,36.70
2018-03-03T03:16:55.095Z,36.80
2018-03-03T03:19:21.725Z,36.80
2018-03-03T03:21:49.172Z,36.80
2018-03-03T03:24:15.798Z,36.80
2018-03-03T03:26:42.825Z,36.80
2018-03-03T03:29:09.832Z,36.80
2018-03-03T03:31:36.446Z,36.80
2018-03-03T03:34:03.061Z,36.80
2018-03-03T03:36:30.498Z,36.90
2018-03-03T03:38:57.094Z,36.90
2018-03-03T03:41:24.485Z,37.00
2018-03-03T03:43:51.878Z,37.20
2018-03-03T03:46:19.268Z,37.40
2018-03-03T03:48:46.661Z,37.40
2018-03-03T03:51:13.672Z,37.40
2018-03-03T03:53:40.692Z,37.40
2018-03-03T03:56:08.079Z,37.40
2018-03-03T03:58:34.725Z,37.40
2018-03-03T04:05:58.278Z,37.40
2018-03-03T04:08:25.304Z,37.40
2018-03-03T04:10:52.719Z,37.20
2018-03-03T04:13:19.743Z,37.30
2018-03-03T04:15:46.772Z,37.40
2018-03-03T04:20:42.519Z,37.30
2018-03-03T04:23:09.545Z,37.30
2018-03-03T04:25:36.586Z,37.30
2018-03-03T04:28:03.982Z,37.40
2018-03-03T04:30:31.395Z,36.90
2018-03-03T04:32:58.778Z,36.90
2018-03-03T04:35:25.426Z,37.00
2018-03-03T04:37:52.458Z,37.00
2018-03-03T04:42:58.278Z,37.20
2018-03-03T04:45:25.317Z,37.30
2018-03-03T04:47:51.962Z,37.30
2018-03-03T04:50:18.979Z,37.40
2018-03-03T04:52:46.365Z,37.40
2018-03-03T04:55:12.991Z,37.50
2018-03-03T04:57:39.616Z,37.50
2018-03-03T05:00:11.981Z,37.50
2018-03-03T05:05:32.858Z,37.60
2018-03-03T05:08:16.475Z,37.60
2018-03-03T05:10:44.342Z,37.60
2018-03-03T05:13:16.521Z,37.70
2018-03-03T05:16:00.846Z,37.70
2018-03-03T05:18:33.640Z,37.80
2018-03-03T05:21:01.022Z,37.70
2018-03-03T05:23:44.501Z,37.70
2018-03-03T05:26:26.403Z,37.80
2018-03-03T05:28:56.345Z,37.80
2018-03-03T05:31:29.174Z,37.80
2018-03-03T05:34:02.414Z,37.90
2018-03-03T05:36:34.151Z,37.90
2018-03-03T05:39:06.647Z,38.00
2018-03-03T05:41:48.542Z,38.00
2018-03-03T05:44:21.267Z,38.00
2018-03-03T05:47:04.094Z,38.00
2018-03-03T05:49:36.454Z,38.00
2018-03-03T05:52:17.945Z,38.00
2018-03-03T05:54:48.045Z,38.10
2018-03-03T05:57:20.457Z,38.10
2018-03-03T05:59:52.985Z,38.10
2018-03-03T06:05:26.162Z,38.10
2018-03-03T06:07:58.777Z,38.10
2018-03-03T06:10:32.585Z,38.20
2018-03-03T06:12:59.594Z,38.20
2018-03-03T06:15:26.211Z,38.20
2018-03-03T06:17:53.604Z,38.20
2018-03-03T06:20:20.623Z,38.20
2018-03-03T06:22:47.646Z,38.60
2018-03-03T06:25:14.258Z,38.60
2018-03-03T06:27:41.271Z,38.80
2018-03-03T06:30:07.930Z,38.80
2018-03-03T06:32:34.565Z,38.70
2018-03-03T06:35:01.579Z,38.70
2018-03-03T06:37:28.196Z,38.60
2018-03-03T06:39:54.816Z,38.70
2018-03-03T06:42:21.448Z,38.60
2018-03-03T06:47:16.390Z,38.70
2018-03-03T06:49:43.776Z,38.50
2018-03-03T06:52:10.846Z,38.50
2018-03-03T06:57:16.075Z,38.60
2018-03-03T06:59:42.695Z,38.40
2018-03-03T07:02:09.699Z,38.40
2018-03-03T07:04:36.330Z,38.60
2018-03-03T07:07:03.347Z,38.50
2018-03-03T07:09:30.365Z,38.40
2018-03-03T07:11:57.395Z,38.10
2018-03-03T07:14:27.086Z,38.00
2018-03-03T07:16:54.504Z,38.00
2018-03-03T07:19:21.133Z,38.00
2018-03-03T07:21:52.252Z,38.10
2018-03-03T07:24:19.321Z,38.20
2018-03-03T07:26:45.927Z,38.30
2018-03-03T07:29:12.583Z,38.30
2018-03-03T07:31:51.931Z,38.40
2018-03-03T07:39:16.660Z,38.50
2018-03-03T07:41:43.728Z,38.50
2018-03-03T07:44:10.381Z,38.50
2018-03-03T07:46:37.010Z,38.50
2018-03-03T07:49:04.021Z,38.50
2018-03-03T07:51:31.058Z,38.50
2018-03-03T07:53:57.687Z,38.50
2018-03-03T07:56:24.708Z,38.70
2018-03-03T07:58:51.733Z,38.70
2018-03-03T08:01:18.743Z,38.70
2018-03-03T08:03:45.388Z,38.70
2018-03-03T08:06:12.410Z,38.70
2018-03-03T08:08:39.982Z,38.80
2018-03-03T08:11:06.605Z,38.80
2018-03-03T08:13:33.655Z,38.80
2018-03-03T08:16:00.273Z,38.80
2018-03-03T08:18:27.654Z,38.80
2018-03-03T08:20:55.123Z,38.80
2018-03-03T08:23:21.712Z,38.80
2018-03-03T08:25:48.773Z,38.80
2018-03-03T08:28:15.798Z,38.80
2018-03-03T08:30:42.866Z,38.80
2018-03-03T08:33:09.490Z,38.90
2018-03-03T08:35:36.099Z,38.90
2018-03-03T08:38:02.727Z,38.90
2018-03-03T08:40:29.751Z,38.90
2018-03-03T08:42:57.131Z,38.90
2018-03-03T08:45:23.750Z,38.90
2018-03-03T08:47:50.378Z,38.90
2018-03-03T08:50:17.393Z,38.90
2018-03-03T08:52:44.785Z,38.90
2018-03-03T08:55:11.839Z,38.90
2018-03-03T08:57:38.859Z,39.00
2018-03-03T09:00:05.864Z,38.90
2018-03-03T09:02:32.872Z,39.00
2018-03-03T09:05:00.631Z,38.90
2018-03-03T09:07:27.272Z,39.00
2018-03-03T09:09:54.294Z,39.00
2018-03-03T09:12:21.357Z,39.00
2018-03-03T09:14:48.378Z,39.00
2018-03-03T09:17:15.441Z,39.00
2018-03-03T09:19:42.058Z,39.00
2018-03-03T09:22:08.676Z,39.00
2018-03-03T09:24:35.316Z,39.00
2018-03-03T09:27:01.974Z,39.00
2018-03-03T09:29:28.999Z,39.00
2018-03-03T09:31:56.010Z,39.00
2018-03-03T09:34:22.720Z,39.00
2018-03-03T09:36:49.307Z,39.00
2018-03-03T09:39:15.931Z,39.10
2018-03-03T09:41:42.556Z,39.40
2018-03-03T09:44:09.582Z,39.50
2018-03-03T09:46:36.997Z,39.50
2018-03-03T09:49:04.006Z,39.50
2018-03-03T09:51:30.637Z,39.50
2018-03-03T09:56:25.556Z,39.60
2018-03-03T09:58:52.219Z,39.50
2018-03-03T10:01:18.845Z,39.50
2018-03-03T10:03:45.865Z,39.50
2018-03-03T10:06:12.881Z,39.40
2018-03-03T10:08:39.502Z,39.40
2018-03-03T10:11:06.882Z,39.30
2018-03-03T10:13:33.501Z,39.20
2018-03-03T10:16:00.138Z,39.20
2018-03-03T10:18:26.778Z,39.20
2018-03-03T10:20:53.417Z,39.20
2018-03-03T10:23:20.042Z,39.20
2018-03-03T10:25:46.705Z,39.10
2018-03-03T10:28:13.768Z,39.20
2018-03-03T10:30:40.413Z,39.10
2018-03-03T10:33:07.068Z,38.80
2018-03-03T10:35:34.878Z,38.70
2018-03-03T10:38:01.489Z,38.70
2018-03-03T10:40:28.893Z,38.80
2018-03-03T10:42:56.284Z,38.90
2018-03-03T10:45:23.314Z,39.00
2018-03-03T10:47:50.390Z,39.00
2018-03-03T10:50:27.893Z,39.10
2018-03-03T10:52:54.930Z,39.10
2018-03-03T10:55:21.971Z,39.30
2018-03-03T10:57:49.053Z,39.30
2018-03-03T11:00:21.483Z,39.40
2018-03-03T11:02:48.118Z,39.40
2018-03-03T11:07:43.056Z,39.50
2018-03-03T11:10:09.676Z,39.60
2018-03-03T11:12:37.096Z,39.50
2018-03-03T11:15:03.748Z,39.50
2018-03-03T11:17:30.381Z,39.60
2018-03-03T11:19:58.318Z,39.60
2018-03-03T11:22:25.362Z,39.60
2018-03-03T11:24:51.998Z,39.60
2018-03-03T11:27:18.664Z,39.60
2018-03-03T11:32:24.450Z,39.60
2018-03-03T11:34:51.467Z,39.70
2018-03-03T11:37:18.149Z,39.70
2018-03-03T11:39:45.186Z,39.70
2018-03-03T11:42:11.839Z,39.70
2018-03-03T11:44:39.223Z,39.70
2018-03-03T11:47:05.858Z,39.70
2018-03-03T11:49:32.887Z,39.70
2018-03-03T11:51:59.502Z,39.70
2018-03-03T11:54:26.518Z,39.80
2018-03-03T11:56:53.523Z,39.70
2018-03-03T11:59:20.143Z,39.70
2018-03-03T12:01:46.792Z,39.80
2018-03-03T12:04:13.415Z,39.80
2018-03-03T12:06:40.053Z,39.80
2018-03-03T12:09:07.082Z,39.80
2018-03-03T12:11:33.693Z,39.80
2018-03-03T12:14:00.722Z,39.80
2018-03-03T12:16:27.733Z,40.00
2018-03-03T12:18:54.760Z,40.10
2018-03-03T12:21:22.882Z,40.30
2018-03-03T12:23:50.289Z,40.20
2018-03-03T12:26:17.310Z,40.10
2018-03-03T12:28:44.356Z,40.20
2018-03-03T12:31:11.782Z,40.10
2018-03-03T12:33:38.843Z,40.00
2018-03-03T12:36:06.491Z,40.00
2018-03-03T12:38:33.141Z,40.00
2018-03-03T12:40:59.782Z,39.80
2018-03-03T12:43:26.424Z,39.80
2018-03-03T12:45:53.444Z,39.80
2018-03-03T12:48:20.500Z,39.80
2018-03-03T12:50:47.569Z,39.70
2018-03-03T12:53:14.206Z,39.70
2018-03-03T12:55:40.826Z,39.70
2018-03-03T12:58:07.900Z,39.70
2018-03-03T13:00:34.530Z,39.70
2018-03-03T13:03:01.169Z,39.70
2018-03-03T13:05:27.789Z,39.60
2018-03-03T13:07:54.452Z,39.70
2018-03-03T13:10:21.467Z,39.70
2018-03-03T13:12:48.149Z,39.80
2018-03-03T13:15:14.763Z,39.70
2018-03-03T13:17:41.400Z,39.70
2018-03-03T13:20:08.020Z,39.70
2018-03-03T13:22:35.406Z,39.60
2018-03-03T13:25:02.026Z,39.70
2018-03-03T13:27:28.674Z,39.70
2018-03-03T13:29:56.112Z,39.70
2018-03-03T13:32:23.138Z,39.70
2018-03-03T13:34:50.155Z,39.70
2018-03-03T13:37:17.173Z,39.70
2018-03-03T13:39:44.201Z,39.70
2018-03-03T13:42:11.218Z,39.80
2018-03-03T13:44:38.609Z,39.70
2018-03-03T13:47:05.643Z,39.70
2018-03-03T13:49:32.661Z,39.70
2018-03-03T13:51:59.670Z,39.70
2018-03-03T13:54:26.329Z,39.60
2018-03-03T13:56:52.978Z,39.60
2018-03-03T13:59:20.054Z,39.60
2018-03-03T14:01:47.071Z,39.60
2018-03-03T14:04:14.086Z,39.70
2018-03-03T14:06:41.507Z,39.70
2018-03-03T14:09:08.574Z,39.80
2018-03-03T14:11:35.604Z,39.70
2018-03-03T14:14:02.650Z,39.70
2018-03-03T14:16:29.681Z,39.80
2018-03-03T14:18:56.321Z,39.70
2018-03-03T14:21:24.081Z,39.80
2018-03-03T14:23:51.122Z,39.80
2018-03-03T14:26:22.387Z,39.80
2018-03-03T14:28:49.399Z,39.90
2018-03-03T14:31:16.031Z,39.80
2018-03-03T14:33:42.670Z,39.90
2018-03-03T14:36:09.291Z,40.00
2018-03-03T14:38:36.324Z,39.90
2018-03-03T14:41:02.951Z,39.90
2018-03-03T14:43:29.575Z,39.80
2018-03-03T14:45:58.397Z,39.90
2018-03-03T14:48:25.033Z,39.90
2018-03-03T14:50:51.672Z,39.90
2018-03-03T14:53:18.714Z,39.90
2018-03-03T14:55:46.134Z,39.90
2018-03-03T14:58:13.152Z,40.00
2018-03-03T15:00:39.802Z,39.80
2018-03-03T15:03:06.487Z,40.10
2018-03-03T15:05:33.477Z,40.00
2018-03-03T15:08:00.102Z,40.00
2018-03-03T15:10:27.119Z,40.00
2018-03-03T15:12:54.507Z,40.10
2018-03-03T15:15:21.118Z,40.20
2018-03-03T15:17:48.529Z,40.10
2018-03-03T15:20:15.550Z,40.00
2018-03-03T15:22:42.205Z,40.20
2018-03-03T15:25:08.822Z,40.30
2018-03-03T15:27:35.837Z,40.10
2018-03-03T15:30:02.457Z,40.10
2018-03-03T15:32:29.489Z,40.10
2018-03-03T15:34:56.113Z,40.20
2018-03-03T15:37:22.750Z,40.20
2018-03-03T15:39:49.402Z,40.20
2018-03-03T15:42:16.037Z,40.30
2018-03-03T15:44:42.670Z,40.30
2018-03-03T15:47:09.306Z,40.30
2018-03-03T15:49:36.738Z,40.30
2018-03-03T15:52:04.158Z,40.40
2018-03-03T15:54:30.781Z,40.40
2018-03-03T15:56:57.797Z,40.20
2018-03-03T15:59:24.841Z,40.20
2018-03-03T16:01:51.898Z,40.20
2018-03-03T16:04:18.538Z,40.40
2018-03-03T16:06:45.166Z,40.40
2018-03-03T16:09:12.552Z,40.40
2018-03-03T16:11:39.569Z,40.40
2018-03-03T16:14:06.598Z,40.40
2018-03-03T16:16:33.624Z,40.40
2018-03-03T16:19:00.640Z,40.30
2018-03-03T16:21:27.315Z,40.40
2018-03-03T16:23:53.928Z,40.10
2018-03-03T16:26:20.932Z,40.20
2018-03-03T16:28:47.973Z,40.30
2018-03-03T16:31:14.995Z,40.40
2018-03-03T16:33:42.018Z,40.30
2018-03-03T16:36:08.711Z,40.20
2018-03-03T16:38:35.366Z,40.40
2018-03-03T16:41:01.998Z,40.50
2018-03-03T16:43:29.015Z,40.50
2018-03-03T16:45:55.635Z,40.40
2018-03-03T16:48:22.246Z,40.40
2018-03-03T16:50:50.395Z,40.50
2018-03-03T16:53:17.782Z,40.40
2018-03-03T16:55:44.800Z,40.40
2018-03-03T16:58:11.817Z,40.20
2018-03-03T17:00:38.427Z,40.30
2018-03-03T17:03:05.039Z,40.40
2018-03-03T17:05:32.807Z,40.50
2018-03-03T17:08:00.194Z,40.60
2018-03-03T17:10:26.818Z,40.70
2018-03-03T17:12:53.443Z,40.80
2018-03-03T17:15:20.105Z,40.80
2018-03-03T17:17:47.493Z,40.90
2018-03-03T17:20:14.510Z,41.00
2018-03-03T17:22:41.138Z,41.00
2018-03-03T17:25:07.767Z,41.00
2018-03-03T17:27:34.376Z,41.20
2018-03-03T17:32:29.701Z,41.20
2018-03-03T17:34:56.347Z,41.30
2018-03-03T17:37:23.414Z,41.20
2018-03-03T17:39:50.010Z,41.20
2018-03-03T17:42:16.626Z,41.30
2018-03-03T17:44:43.645Z,41.30
2018-03-03T17:47:11.080Z,41.30
2018-03-03T17:49:40.573Z,41.30
2018-03-03T17:52:07.186Z,41.30
2018-03-03T17:54:33.834Z,41.30
2018-03-03T17:57:00.863Z,41.40
2018-03-03T17:59:27.872Z,41.40
2018-03-03T18:01:54.526Z,41.40
2018-03-03T18:04:21.169Z,41.40
2018-03-03T18:06:48.540Z,41.40
2018-03-03T18:11:43.439Z,41.30
2018-03-03T18:14:10.066Z,41.40
2018-03-03T18:16:38.201Z,41.40
2018-03-03T18:19:04.821Z,41.40
2018-03-03T18:21:31.458Z,41.40
2018-03-03T18:23:58.085Z,41.40
2018-03-03T18:26:25.124Z,41.40
2018-03-03T18:28:53.263Z,41.40
2018-03-03T18:31:19.901Z,41.40
2018-03-03T18:33:46.528Z,41.40
2018-03-03T18:36:13.569Z,41.40
2018-03-03T18:38:40.597Z,41.40
2018-03-03T18:41:07.217Z,41.40
2018-03-03T18:43:34.250Z,41.40
2018-03-03T18:46:00.868Z,41.40
2018-03-03T18:48:27.500Z,41.40
2018-03-03T18:50:54.121Z,41.40
2018-03-03T18:53:20.802Z,41.30
2018-03-03T18:55:47.836Z,41.30
2018-03-03T18:58:14.890Z,41.30
2018-03-03T19:00:41.542Z,41.30
2018-03-03T19:03:08.576Z,41.40
2018-03-03T19:05:35.214Z,41.30
2018-03-03T19:08:01.883Z,41.30
2018-03-03T19:10:28.504Z,41.40
2018-03-03T19:12:55.537Z,41.40
2018-03-03T19:15:22.565Z,41.40
2018-03-03T19:17:49.206Z,41.40
2018-03-03T19:20:15.826Z,41.40
2018-03-03T19:22:42.466Z,41.40
2018-03-03T19:25:09.103Z,41.30
2018-03-03T19:27:36.510Z,41.30
2018-03-03T19:32:40.128Z,41.40
2018-03-03T19:35:07.170Z,41.40
2018-03-03T19:37:34.935Z,41.40
2018-03-03T19:40:01.568Z,41.50
2018-03-03T19:42:28.605Z,41.50
2018-03-03T19:44:55.631Z,41.50
2018-03-03T19:47:22.275Z,41.50
2018-03-03T19:49:49.295Z,41.50
2018-03-03T19:52:15.944Z,41.40
2018-03-03T19:54:42.980Z,41.40
2018-03-03T19:57:09.634Z,41.40
2018-03-03T19:59:37.046Z,41.40
2018-03-03T20:02:04.083Z,41.40
2018-03-03T20:04:31.530Z,41.40
2018-03-03T20:09:26.443Z,41.40
2018-03-03T20:11:53.077Z,41.40
2018-03-03T20:14:19.712Z,41.40
2018-03-03T20:16:46.341Z,41.40
2018-03-03T20:19:12.977Z,41.40
2018-03-03T20:21:40.016Z,41.40
2018-03-03T20:24:06.701Z,41.40
2018-03-03T20:26:33.351Z,41.40
2018-03-03T20:29:00.376Z,41.40
2018-03-03T20:31:27.409Z,41.40
2018-03-03T20:33:54.093Z,41.30
2018-03-03T20:36:21.135Z,41.40
2018-03-03T20:38:48.553Z,41.40
2018-03-03T20:41:15.587Z,41.40
2018-03-03T20:43:42.221Z,41.40
2018-03-03T20:46:09.247Z,41.40
2018-03-03T20:48:37.017Z,41.40
2018-03-03T20:51:04.033Z,41.40
2018-03-03T20:53:31.063Z,41.40
2018-03-03T20:55:57.694Z,41.40
2018-03-03T20:58:24.736Z,41.40
2018-03-03T21:01:04.176Z,41.40
2018-03-03T21:03:31.220Z,41.40
2018-03-03T21:05:58.233Z,41.40
2018-03-03T21:08:25.271Z,41.40
2018-03-03T21:10:53.285Z,41.40
2018-03-03T21:13:20.324Z,41.40
2018-03-03T21:15:46.989Z,41.40
2018-03-03T21:18:13.638Z,41.40
2018-03-03T21:20:40.269Z,41.40
2018-03-03T21:23:07.660Z,41.40
2018-03-03T21:25:35.448Z,41.40
2018-03-03T21:28:02.501Z,41.40
2018-03-03T21:30:29.170Z,41.40
2018-03-03T21:32:56.212Z,41.40
2018-03-03T21:35:23.241Z,41.40
2018-03-03T21:37:50.691Z,41.40
2018-03-03T21:45:13.910Z,41.40
2018-03-03T21:47:40.531Z,41.40
2018-03-03T21:50:07.562Z,41.40
2018-03-03T21:52:34.937Z,41.40
2018-03-03T21:55:01.582Z,41.40
2018-03-03T21:57:28.231Z,41.40
2018-03-03T21:59:55.268Z,41.40
2018-03-03T22:02:22.293Z,41.40
2018-03-03T22:04:49.328Z,41.40
2018-03-03T22:07:15.950Z,41.40
2018-03-03T22:09:42.966Z,41.40
2018-03-03T22:12:09.595Z,41.40
2018-03-03T22:14:36.609Z,41.50
2018-03-03T22:17:03.664Z,41.40
2018-03-03T22:19:30.288Z,41.40
2018-03-03T22:21:56.954Z,41.40
2018-03-03T22:24:23.583Z,41.40
2018-03-03T22:26:54.909Z,41.50
2018-03-03T22:29:21.918Z,41.40
2018-03-03T22:31:48.579Z,41.40
2018-03-03T22:34:15.613Z,41.40
2018-03-03T22:36:42.225Z,41.40
2018-03-03T22:39:08.853Z,41.40
2018-03-03T22:41:35.883Z,41.40
2018-03-03T22:44:02.898Z,41.50
2018-03-03T22:46:29.530Z,41.40
2018-03-03T22:48:56.540Z,41.40
2018-03-03T22:51:23.184Z,41.50
2018-03-03T22:53:49.827Z,41.50
2018-03-03T22:56:16.891Z,41.50
2018-03-03T22:58:43.926Z,41.50
2018-03-03T23:01:10.553Z,41.70
2018-03-03T23:03:37.589Z,42.00
2018-03-03T23:06:04.974Z,42.00
2018-03-03T23:08:31.630Z,41.90
2018-03-03T23:10:59.014Z,41.90
2018-03-03T23:13:26.036Z,42.00
2018-03-03T23:15:52.664Z,42.00
2018-03-03T23:18:19.338Z,41.80
2018-03-03T23:20:46.727Z,41.80
2018-03-03T23:23:13.750Z,41.80
2018-03-03T23:25:40.767Z,41.70
2018-03-03T23:28:07.393Z,41.80
2018-03-03T23:30:34.417Z,41.80
2018-03-03T23:33:01.476Z,41.60
2018-03-03T23:35:28.093Z,41.50
2018-03-03T23:37:54.711Z,41.50
2018-03-03T23:40:21.325Z,41.50
2018-03-03T23:42:49.687Z,41.50
2018-03-03T23:45:16.316Z,41.10
2018-03-03T23:47:43.341Z,41.00
2018-03-03T23:50:09.957Z,41.00
2018-03-03T23:52:36.570Z,41.20
2018-03-03T23:55:03.589Z,41.30
2018-03-03T23:57:32.783Z,41.40
2018-03-03T23:59:59.812Z,41.50
